Campanya meteocatpedra

Dades de l'estació automàtica Monells

?
?
Resum diari 21:30 TU
Dades diàries de l'estació meteorològica
Temperatura mitjana 22.2 °C
Temperatura màxima 31.1 °C 10:45 TU
Temperatura mínima 12.2 °C 0:53 TU
Humitat relativa mitjana 55%
Precipitació acumulada 0.0 mm
Ratxa màxima del vent (2 m) 22.3 km/h - 39º 10:57 TU
Irradiació solar global 26.6 MJ/m2

El tram horari està expressat en Temps Universal (TU). Cal sumar una hora en horari d'hivern i dues en horari d'estiu per passar a l'hora oficial.

Monells

Metadades estació meteorol´gica
Municipi Cruïlles, Monells i Sant Sadurní de l'Heura
Comarca Baix Empordà
Altitud 60 m
Data alta 04.03.1998
Estat actual Operativa
Dades de període
Període
TU
TM
°C
TX
°C
TN
°C
HRM
%
PPT
mm
VVM (2 m)
km/h
DVM (2 m)
graus
VVX (2 m)
km/h
RS
W/m2
00:00 - 00:30 12.7 12.9 12.5 82 0.0 1.8 240 4.7 0
00:30 - 01:00 12.5 12.8 12.2 83 0.0 2.5 215 4.7 0
01:00 - 01:30 12.8 13.5 12.3 82 0.0 2.9 234 5.4 0
01:30 - 02:00 13.5 13.6 13.4 79 0.0 3.2 238 6.1 0
02:00 - 02:30 13.6 13.9 13.5 80 0.0 3.6 216 6.5 0
02:30 - 03:00 13.6 13.8 13.4 80 0.0 2.5 227 5.8 0
03:00 - 03:30 13.3 13.6 12.9 82 0.0 2.2 304 4.3 0
03:30 - 04:00 13.3 13.9 12.8 82 0.0 2.2 234 5.4 0
04:00 - 04:30 12.7 12.9 12.6 86 0.0 1.8 214 4.3 2
04:30 - 05:00 13.2 13.8 12.9 86 0.0 1.4 221 5.0 23
05:00 - 05:30 14.7 15.5 13.8 81 0.0 0.7 234 2.9 53
05:30 - 06:00 16.2 17.2 15.6 76 0.0 1.1 232 2.9 81
06:00 - 06:30 18.1 18.8 17.3 69 0.0 0.4 231 2.5 112
06:30 - 07:00 19.7 20.6 18.9 63 0.0 1.1 200 3.6 172
07:00 - 07:30 21.8 22.7 20.6 55 0.0 1.1 191 3.2 241
07:30 - 08:00 23.8 25.5 22.6 48 0.0 1.8 149 5.0 458
08:00 - 08:30 25.7 26.2 25.1 42 0.0 3.2 188 9.0 678
08:30 - 09:00 26.6 27.1 25.7 40 0.0 4.7 186 11.2 729
09:00 - 09:30 26.9 27.4 26.5 40 0.0 4.7 251 11.2 765
09:30 - 10:00 27.8 28.7 26.7 37 0.0 4.0 95 10.8 763
10:00 - 10:30 28.0 29.4 27.5 37 0.0 4.3 345 11.9 832
10:30 - 11:00 30.2 31.1 29.4 34 0.0 5.4 215 22.3 873
11:00 - 11:30 29.2 30.1 28.5 35 0.0 7.9 67 20.2 784
11:30 - 12:00 28.7 29.7 28.1 37 0.0 7.6 124 20.2 805
12:00 - 12:30 28.2 28.7 27.6 39 0.0 10.1 167 22.3 874
12:30 - 13:00 28.6 29.2 28.2 37 0.0 9.0 161 17.6 878
13:00 - 13:30 28.4 28.6 28.1 36 0.0 9.7 170 20.2 896
13:30 - 14:00 28.4 28.8 28.1 36 0.0 8.3 160 17.6 802
14:00 - 14:30 28.7 29.2 28.1 36 0.0 7.2 156 18.7 782
14:30 - 15:00 29.1 29.7 28.3 35 0.0 6.5 152 16.2 705
15:00 - 15:30 28.4 29.3 27.7 36 0.0 6.1 136 16.9 519
15:30 - 16:00 28.3 29.1 27.8 37 0.0 7.6 161 14.4 530
16:00 - 16:30 28.3 29.0 27.8 37 0.0 5.8 155 13.0 437
16:30 - 17:00 28.1 29.0 27.2 38 0.0 7.2 217 15.5 336
17:00 - 17:30 27.5 28.0 27.1 38 0.0 7.9 217 15.1 308
17:30 - 18:00 27.0 27.4 26.6 38 0.0 7.6 207 15.1 206
18:00 - 18:30 26.2 26.7 25.8 39 0.0 6.1 232 12.6 126
18:30 - 19:00 24.9 25.8 23.7 42 0.0 4.3 221 9.7 40
19:00 - 19:30 22.9 23.6 21.7 49 0.0 2.5 255 4.3 8
19:30 - 20:00 20.8 21.6 20.3 56 0.0 0.7 219 2.9 0
20:00 - 20:30 19.4 20.5 18.7 63 0.0 0.7 210 4.3 0
20:30 - 21:00 18.1 18.6 17.8 70 0.0 2.5 246 5.0 0
21:00 - 21:30 17.6 17.7 17.3 71 0.0 2.9 215 5.0 0
21:30 - 22:00 17.1 17.6 16.7 72 0.0 1.4 234 3.6 0

Les dades en taronja només han passat un control de qualitat automàtic. Resta pendent la seva validació definitiva.